AK Observations

PADU 252225Z 36011KT 3SM -RA BR SCT003 BKN006 OVC010 09/07 A2977 RMK AO2 VIS NEAND NW 2 CS P0000 PATQ 252227Z AUTO 28010KT 10SM FEW021 SCT033 01/M01 A3001 RMK AO2 RAB05E18 P0000 FZRANO TSNO PAAK 252208Z AUTO 31012KT 1 3/4SM -RA BR BKN017 OVC024 08/06 A3002 RMK AO2 P0001 PAAK 252219Z AUTO 30012KT 3SM -RA BR SCT013 BKN018 OVC024 08/06 A3001 RMK AO2 P0001 PACM 252223Z AUTO 36011KT 10SM BKN019 09/04 A2989 RMK AO2 PADU 252208Z 36008KT 4SM -RA BR OVC012 09/08 A2977 RMK AO2 P0000 PAED 252206Z AUTO 34006KT 10SM FEW010 BKN050 OVC065 11/11 A2986 RMK AO2 SLP108 PAEH 252210Z AUTO 10011G19KT 10SM -SHRA BKN011 08/06 A2977 RMK AO2 SLP083 PAEM 252213Z AUTO 02013G17KT 10SM BKN021 10/04 A2987 RMK AO2 PAFA 252220Z 19004KT 6SM -RA BR FEW017 BKN029 OVC045 08/08 A2979 RMK AO2 P0000 T00830078 PAFB 252213Z 20003KT 5SM -RA BR OVC007 08/07 A2980 RMK AO2A CIG 005V008 SLP096 PAFE 252210Z AUTO 26004KT 1 1/4SM BR 11/09 A2999 RMK AO2 VIS 1/2V5 PAFE 252224Z AUTO 25004KT 1/4SM FG 10/09 A2999 RMK AO2 PAGN 252214Z AUTO 00000KT 2 1/2SM BR BKN003 BKN046 09/09 A2998 RMK AO2 VIS 1 1/4V5 PAGN 252224Z AUTO 00000KT 1 3/4SM BR BKN003 09/09 A2998 RMK AO2 VIS 1V5 PANN 252224Z AUTO 28004KT 10SM -RA BKN011 OVC055 08/08 A2978 RMK AO2 P0001 T00830078 TSNO PANT 252219Z AUTO 14006KT 3SM BR FEW005 BKN011 OVC016 16/14 A2995 RMK AO2 T01560139 TSNO PANW 252214Z AUTO 05008KT 10SM BKN023 A2981 RMK AO2 FZRANO $ PAOU 252211Z AUTO 24006KT 2SM -RA BR FEW009 SCT025 OVC029 08/07 A2968 RMK AO2 VIS 1 1/4V4 RAB07 P0000 PAQT 252217Z AUTO 35013KT 10SM OVC018 02/M01 A2996 RMK AO2 T00171006 TSNO PARS 252220Z AUTO 00000KT 1 1/2SM -RA BR SCT006 OVC011 08/08 A2982 RMK AO2 P0000 $ PASY 252208Z AUTO 32008KT 7SM BKN019 OVC026 09/08 A3028 RMK AO2 SLP257 PASY 252218Z AUTO 31007KT 7SM SCT018 OVC025 09/08 A3028 RMK AO2 CIG 019V026 SLP257 PPIZ 252210Z AUTO 32014KT 10SM -RA FEW006 BKN017 OVC023 02/00 A3009 RMK AO2 RAB06 P0000 FZRANO TSNO PPIZ 252216Z AUTO 32015KT 1 3/4SM -SN BR FEW006 BKN017 OVC025 01/M01 A3009 RMK AO2 RAB06E15SNB15 P0000 FZRANO TSNO PPIZ 252220Z AUTO 33010KT 3/4SM -SN BR SCT006 SCT013 OVC017 01/M01 A3010 RMK AO2 RAB06E15SNB15 P0000 FZRANO TSNO PATE 252222Z AUTO 02018KT BKN022 05/00 A3000 RMK AO2 PK WND 02027/2212 PWINO $ PAUT 252215Z AUTO 31012G16KT 10SM BKN004 BKN037 09/08 A2972 RMK AO2 T00850079 PAAK 252156Z AUTO 31010KT 5SM -RA BKN017 OVC024 08/06 A3001 RMK AO2 SLP165 P0000 T00830056 PAAQ 252153Z 00000KT 10SM FEW030 SCT080 12/07 A2986 RMK AO2 SLP113 T01220067 $ PABA 252152Z AUTO 26009KT 8SM -SN OVC003 01/01 A2989 RMK AO2 SLP107 P0000 T00060006 FZRANO TSNO PABE 252153Z 23005KT 10SM BKN050 10/03 A2982 RMK AO2 SLP098 T01000033 PABI 252153Z 36007G16KT 10SM FEW005 SCT017 SCT095 BKN200 10/06 A2981 RMK AO2 SLP102 CIG THN T01000056 PABL 252156Z AUTO 34007KT 10SM CLR 06/01 A2990 RMK AO2 SLP126 T00560006 PABR 252153Z 34011KT 10SM OVC032 02/M04 A2998 RMK AO2 SLP152 T00171039 PABT 252153Z 01004KT 10SM BKN060 BKN110 BKN150 07/M04 A2979 RMK AO2 SLP100 T00671044 PABV 252156Z AUTO 00000KT 10SM -RA OVC065 10/07 A2988 RMK AO2 RAB41 SLP127 P0000 T01000072 $ PACD 252153Z 32010KT 10SM BKN025 OVC031 09/05 A2968 RMK AO2 SLP050 T00940050 $ PACM 252156Z AUTO 36011KT 10SM SCT017 08/04 A2989 RMK AO2 SLP117 T00780044 PACV 252153Z 00000KT 10SM FEW020 SCT026 BKN042 12/07 A2994 RMK AO2 SLP137 T01170067 PACZ 252155Z AUTO 02018G26KT 010V090 10SM BKN010 06/05 A2984 RMK AO2 PK WND 02030/2100 SLP107 T00640045 PADE 252153Z AUTO 34010KT 10SM CLR 08/02 A2991 RMK AO2 SLP128 T00780022 TSNO $ PADK 252156Z AUTO 10SM OVC048 11/05 A3010 RMK AO2 SLP191 T01110050 PADL 252156Z AUTO 07006KT 10SM OVC055 08/06 A2981 RMK AO2 SLPNO T00830056 PADM 252156Z AUTO 06005KT 10SM BKN045 OVC060 09/07 A2983 RMK AO2 SLP111 T00890067 PADQ 252153Z 05004KT 10SM SCT031 OVC055 10/05 A2981 RMK AO2 SLP093 T01000050 PADU 252156Z 33007KT 2SM -RA BR SCT003 BKN006 OVC010 09/08 A2977 RMK AO2 SLP081 VIS NE 1 1/2 E 3 CS P0002 T00890078 PAED 252156Z AUTO 33006KT 10SM SCT011 BKN060 OVC070 11/10 A2986 RMK AO2 SLP108 T01060104 PAEG 252153Z AUTO 12006KT 10SM -RA OVC060 09/07 A2974 RMK AO2 SLP077 P0001 T00890072 TSNO PAEH 252155Z AUTO 09013KT 10SM -SHRA BKN009 BKN041 08/06 A2976 RMK AO2 SHRAB2103 SLP082 P0000 T00760060 PAEI 252156Z 08003KT 10SM -RA BKN010 OVC015 08/07 A2980 RMK AO2A SLP098 P0001 T00770066 $ PAEM 252156Z AUTO 02011KT 10SM SCT016 09/04 A2987 RMK AO2 SLP176 T00890044 PAEN 252153Z 32005KT 10SM FEW041 OVC050 11/07 A2987 RMK AO2 SLP116 T01060067 PAFA 252153Z 00000KT 2 1/2SM -RA BR FEW004 BKN015 OVC025 08/07 A2979 RMK AO2 TWR VIS 4 SLP094 P0003 T00780072 $ PAFB 252203Z 18003KT 7SM -RA BKN005 OVC010 08/07 A2980 RMK AO2A SLP096 PAFB 252158Z 18003KT 7SM -RA BKN004 OVC010 08/07 A2980 RMK AO2A SLP096 P0002 T00750069 PAFM 252156Z AUTO 00000KT 10SM CLR 07/M02 A2985 RMK AO2 SLP124 T00721022 PAFS 252201Z AUTO 24010KT 10SM BKN085 10/04 A2983 RMK AO2 SLP122 T01000044 PAGA 252156Z AUTO 00000KT 10SM CLR 08/M01 A2982 RMK AO2 SLP101 T00781006 PAGK 252153Z AUTO 16006KT 10SM CLR 13/01 A2986 RMK AO2 SLP118 T01280011 TSNO $ PAGM 252156Z AUTO 04017G23KT 10SM OVC020 04/01 A3010 RMK AO2 PK WND 03027/2148 SLP200 T00440006 PAGN 252204Z AUTO 00000KT 9SM SCT003 SCT046 09/09 A2999 RMK AO2 PAGN 252156Z AUTO 00000KT 10SM FEW046 09/09 A2999 RMK AO2 SLP145 T00940089 PAGS 252156Z AUTO 21004KT 10SM CLR 12/09 A2999 RMK AO2 SLP154 T01220094 PAGY 252153Z AUTO 24008KT 10SM BKN055 11/07 A2996 RMK AO2 SLP144 T01060067 TSNO PAHC 252156Z AUTO 00000KT 10SM OVC010 08/07 A2982 RMK AO2 SLP102 T00830067 PAHL 252156Z AUTO 00000KT 05/M01 A2981 RMK AO2 SLPNO T00501006 PAHN 252154Z AUTO 13006KT 10SM CLR 12/09 A2997 RMK AO2 SLP150 T01170089 TSNO PAHO 252153Z 13003KT 10SM CLR 11/03 A2987 RMK AO2 SLPNO T01110028 PAHP 252156Z AUTO 01014KT 10SM CLR 09/04 A2985 RMK AO2 SLP146 T00890044 PAHY 252156Z AUTO 26004KT 10SM BKN015 OVC022 14/12 A2994 RMK AO2 SLP135 T01440117 $ PAIG 252156Z AUTO 04014KT 10SM FEW040 10/06 A2979 RMK AO2 SLP099 T01000061 $ PAII 252156Z AUTO 12012G19KT 10SM FEW023 SCT050 OVC065 11/04 A2977 RMK AO2 SLP086 T01060039 PAIL 252153Z 10006KT 10SM SCT037 BKN046 09/05 A2984 RMK AO2 SLP106 T00890050 PAIM 252155Z AUTO 11001KT 10SM FEW050 BKN060 BKN170 05/01 A2977 RMK AO2 SLP091 T00540005 PAIN 252156Z AUTO VRB06KT 10SM FEW055 OVC070 10/02 A2978 RMK AO2 RAB07E34 SLP108 P0000 T01000022 PAJC 252156Z AUTO 12009G14KT 10SM OVC036 09/02 A2972 RMK AO2 SLP063 T00940022 PAJN 252153Z 24007KT 10SM FEW007 FEW050 BKN100 BKN200 11/09 A2997 RMK AO2 SLP148 T01110094 PAJZ 252156Z AUTO 08008KT 7SM BKN030 OVC036 10/03 A2986 RMK AO2 SLP119 T01000033 $ PAKK 252156Z AUTO 33010G18KT 10SM CLR 07/01 A2984 RMK AO2 SLP119 T00670006 PAKN 252154Z COR 07003KT 10SM SCT030 12/04 A2975 RMK AO2 SLP075 T01220044 PAKN 252154Z 07003KT 10SM CLR 12/04 A2975 PAKP 252156Z AUTO 05013KT 10SM OVC035 00/M02 A2982 RMK AO2 SLP145 T00001022 FZRANO PAKT 252153Z 33005KT 10SM FEW009 SCT011 OVC017 14/13 A2996 RMK AO2 SLP145 HARBOR WIND 27007KT T01440128 PAKU 252145Z 32008KT 7SM R24/P6000FT -RA BKN004 BKN020 OVC032 01/01 A2992 PAKV 252153Z AUTO 00000KT 10SM CLR 11/01 A2983 RMK AO2 SLP105 T01110011 TSNO PAKW 252153Z AUTO 00000KT 10SM OVC027 16/11 A2993 RMK AO2 SLP135 T01560111 TSNO PALG 252156Z AUTO 00000KT FEW012 OVC048 09/07 A2981 RMK AO2 SLP099 T00890072 PWINO $ PALH 252153Z 36006KT 10SM OVC060 11/07 A2987 RMK AO2 SLP116 T01110072 PALU 252155Z AUTO 05011KT 10SM FEW031 03/M02 A3011 RMK AO2 SLP196 T00281024 PAMC 252153Z 22004KT 10SM OVC023 11/04 A2982 RMK AO2 SLP103 T01060044 PAMH 252156Z AUTO 23008KT 10SM BKN018 OVC050 09/04 A2980 RMK AO2 SLP113 T00890044 PAMK 252156Z AUTO 02013KT 10SM BKN012 07/03 A2988 RMK AO2 SLP121 T00670028 $ PAMR 252200Z 35006KT 10SM FEW015 OVC060 11/08 A2986 RMK AO2 T01110083 $ PAMR 252153Z 35005KT 10SM SCT010 BKN015 OVC075 11/09 A2986 RMK AO2 SLP113 T01060089 $ PAMY 252156Z AUTO 02014G20KT 9SM BKN014 09/06 A2983 RMK AO2 SLP102 T00890061 PANC 252153Z VRB04KT 10SM FEW013 SCT022 BKN060 12/07 A2986 RMK AO2 SLP112 T01220067 PANI 252156Z AUTO 03003KT 10SM OVC022 10/07 A2981 RMK AO2 SLP065 T01000067 PANN 252153Z AUTO VRB04KT 10SM -RA FEW014 BKN044 OVC055 08/07 A2978 RMK AO2 SLP093 P0002 T00830072 TSNO PANT 252153Z AUTO 14005KT 5SM BR BKN007 BKN011 OVC016 16/14 A2995 RMK AO2 SLP144 T01560139 TSNO PANV 252156Z AUTO VRB03KT 10SM OVC012 07/06 A2980 RMK AO2 SLP115 T00720061 PANW 252156Z AUTO 05006KT 10SM SCT019 SCT110 A2982 RMK AO2 SLPNO FZRANO $ PAOH 252156Z AUTO 10006KT 10SM FEW047 12/09 A2997 RMK AO2 SLP150 T01170089 PAOM 252153Z 22007KT 10SM CLR 07/01 A2991 RMK AO2 SLP127 T00720011 CHINO NE $ PAOM 252153Z 22007KT 10SM CLR 07/01 A2991 RMK SLP127 T00720011 CHINO NE $ VIA AUTODIAL PAOO 252156Z AUTO 31007KT 10SM OVC017 07/06 A2981 RMK AO2 RAE28 SLP104 P0001 T00720056 PAOR 252153Z 29008G19KT 10SM SCT150 14/M02 A2978 RMK AO2 SLP093 T01391017 PAOT 252153Z 36014KT 10SM CLR 06/00 A2991 RMK AO2 SLP130 T00560000 PAOU 252156Z AUTO 20005KT 10SM FEW013 BKN027 OVC043 09/07 A2967 RMK AO2 SLP048 T00940067 PAPB 252153Z AUTO 36021G29KT 8SM OVC010 08/06 A2982 RMK AO2 PK WND 01032/2105 CIG 009V013 SLP087 T00780061 TSNO PAPG 252156Z 08005KT 7SM BCFG SCT005 BKN019 OVC042 11/10 A2997 RMK AO2 SLP153 T01110100 PAPH 252156Z AUTO 14012KT 10SM OVC047 08/04 A2971 RMK AO2 RAB2058E45 SLP065 P0000 T00830044 PAPM 252156Z AUTO 08015G21KT 10SM BKN031 OVC090 10/03 A2976 RMK AO2 SLP081 T01000033 PAPN 252156Z AUTO 14005KT 10SM -RA SCT032 BKN043 OVC060 10/04 A2973 RMK AO2 RAB52 SLP070 P0000 T01000039 PAPO 252156Z AUTO 06015KT 10SM CLR 04/M04 A3011 RMK AO2 SLP195 T00391044 PAQT 252153Z AUTO 35013KT 10SM OVC011 01/00 A2995 RMK AO2 RAE2058B03E28 SLP144 P0000 T00110000 TSNO PARC 252156Z AUTO 00000KT 10SM OVC045 01/M03 A2973 RMK AO2 SLP115 T00061028 FZRANO PARS 252156Z AUTO 04003KT 2SM -RA BR BKN006 OVC011 08/08 A2982 RMK AO2 RAB13 CIG 004V008 SLP101 P0000 T00830078 $ PASA 252156Z AUTO 03018G24KT 10SM OVC020 05/01 A3008 RMK AO2 SLP187 T00500006 $ PASC 252153Z 29009KT 10SM OVC006 01/01 A2990 RMK AO1 SNE39 CIG 004V010 SLP126 SCT V BKN P0000 T00110006 PASD 252156Z 18007KT 10SM SCT019 BKN024 BKN032 10/06 A2968 RMK AO2 SLP054 VCSH SE-SW KH T01000061 PASH 252156Z AUTO 01022KT 8SM OVC016 04/01 A3003 RMK AO2 PK WND 36027/2112 SLP172 T00440011 PASI 252153Z 22005KT 10SM FEW020 BKN200 13/11 A2995 RMK AO2 SLP141 T01280106 PASK 252156Z AUTO 34006KT 10SM CLR 07/M02 A2989 RMK AO2 SLP119 T00721017 $ PASL 252156Z AUTO VRB04KT 10SM 09/05 A2986 RMK AO2 SLP110 T00940050 $ PASM 252156Z AUTO 00000KT 10SM OVC007 07/06 A2985 RMK AO2 SLP126 T00720056 PASN 252153Z AUTO 35019KT 10SM -RA OVC018 07/04 A2986 RMK AO2 PK WND 35026/2149 RAB50 SLP112 P0000 T00720039 TSNO PASO 252153Z AUTO 20005KT 10SM FEW035 SCT046 BKN055 10/05 A2986 RMK AO2 RAE11 SLP111 P0000 T01000050 TSNO $ PASV 252155Z AUTO 23002KT 10SM FEW024 08/02 A2981 RMK AO2 SLP104 T00780022 PASX 252156Z AUTO 00000KT 10SM BKN045 12/04 A2980 RMK AO2 SLP102 T01170044 $ PASY 252158Z AUTO 32009KT 7SM SCT015 OVC023 09/08 A3028 RMK AO2 SLP257 T00910083 $ PATA 252159Z 14003KT 10SM FEW023 SCT029 OVC043 07/06 A2980 RMK AO2 T00670061 PATA 252152Z 12005KT 10SM SCT023 BKN029 OVC043 07/06 A2980 RMK AO2 RAB2055E16 SLP094 P0000 T00670061 PATK 252153Z 22004KT 10SM OVC095 11/06 A2988 RMK AO2 SLP120 T01060061 PATL 252155Z AUTO 25007KT 10SM BKN018 09/05 A2984 RMK AO2 SLP109 T00890048 PATO 252153Z AUTO 13008G17KT 100V190 7SM -RA SCT027 BKN034 OVC044 09/06 A2989 RMK AO2 SLP120 P0002 T00890061 TSNO PATQ 252156Z AUTO 30007KT 10SM BKN023 OVC029 01/M01 A3001 RMK AO2 RAB28E34UPB44E47SNB34E44 SLP168 P0000 T00111006 FZRANO TSNO PAUN 252156Z AUTO 31013KT 10SM CLR 07/03 A2983 RMK AO2 SLP107 T00720033 PAVC 252156Z AUTO 27012KT 10SM BKN032 10/05 A2968 RMK AO2 SLP055 T01000050 PAVD 252156Z 26004KT 10SM FEW010 BKN045 BKN150 09/07 A2993 RMK AO2 RAE03 SLP161 TWR WND 19006KT P0000 T00890067 PAVL 252153Z AUTO 01023G32KT 10SM CLR 03/M02 A3000 RMK AO2 PK WND 02035/2122 SLP160 T00331022 TSNO PNO $ PAWD 252153Z AUTO 19003KT 10SM BKN045 OVC060 09/07 A2989 RMK AO2 RAB23E39 SLP122 P0000 T00940067 TSNO PAWG 252156Z 28003KT 10SM FEW005 SCT015 BKN050 13/11 A2997 RMK AO2 SLP149 T01280111 PAWI 252153Z AUTO 29010KT 10SM CLR 03/00 A3001 RMK AO2 SNE2056B05E14 SLP163 P0000 T00280000 TSNO PAZK 252156Z AUTO VRB05KT 10SM CLR 08/M01 A2981 RMK AO2 SLP125 T00831006 PFYU 252156Z 00000KT 10SM FEW060 SCT070 06/01 A2978 RMK AO2 SLP110 T00560006 PPIZ 252156Z AUTO 33007KT 10SM FEW019 BKN023 OVC034 02/M01 A3009 RMK AO2 RAB2059E05B26E29SNB05E26 SLP193 P0000 T00221011 FZRANO TSNO PPIZ 252152Z AUTO 32007KT 10SM BKN023 OVC034 02/M01 A3009 RMK AO2 RAB2059E05B26E29SNB05E26 P0000 FZRANO TSNO PAFR 252154Z AUTO 30004KT 10SM SCT010 BKN055 OVC070 11/08 A2986 RMK AO1 PAGH 252156Z AUTO 00000KT 10SM CLR 05/M02 A2984 RMK AO2 SLP110 T00501017 PAIK 252156Z AUTO 34006KT 10SM CLR 07/M02 A2990 RMK AO2 SLP130 T00721022 PAIW 252156Z AUTO 03015G21KT 10SM OVC022 04/01 A3007 RMK AO2 SLP186 T00440006 PAKF 252201Z AUTO 36012KT 10SM BKN029 10/05 A2969 RMK AO2 SLP147 T01000050 $ PATE 252156Z AUTO 36024KT FEW019 04/M01 A2999 RMK AO2 PK WND 01028/2151 SLP160 T00441006 PWINO $ PAVA 252156Z AUTO 02016KT 10SM FEW018 09/04 A2985 RMK AO2 SLP191 T00890044 PAWM 252156Z AUTO 35015KT 10SM CLR 07/M01 A2990 RMK AO2 SLP129 T00721011 PNO $ PFEL 252156Z AUTO 36009KT 10SM CLR 07/00 A2988 RMK AO2 SLP120 T00720000 PFKT 252156Z AUTO 01015KT 10SM OVC024 05/M01 A3002 RMK AO2 SLP166 T00501006 PFNO 252156Z AUTO 01012KT 10SM CLR 07/M03 A2990 RMK AO2 SLP124 T00671028 PFSH 252156Z AUTO 02018KT 6SM HZ CLR 04/02 A2988 RMK AO2 SLP117 T00440017 PAHX 252156Z AUTO 02003KT 10SM OVC006 08/07 A2983 RMK AO2 SLP101 T00830067 PANA 252156Z AUTO 18005KT 10SM OVC060 11/04 A2981 RMK AO2 SLP093 T01060039 PAQH 252156Z AUTO 08004KT 10SM SCT036 11/03 A2979 RMK AO2 SLP087 T01060028 PWINO PAUT 252155Z AUTO 32009KT 10SM SCT004 OVC034 08/07 A2973 RMK AO2 T00790073 PFCL 252156Z AUTO 07009KT BKN090 OVC110 08/06 A2979 RMK AO2 SLP091 T00830056 PWINO $ PFKW 252156Z AUTO 31006KT 10SM CLR 10/04 A2980 RMK AO2 SLP092 T01000039 PFWS 252156Z AUTO VRB03KT 6SM HZ OVC030 10/04 A2980 RMK AO2 SLPNO T01000039 PPIT 252156Z AUTO 22005KT 10SM OVC037 09/05 A2980 RMK AO2 SLP093 T00890050 TSNO